createdAt,value
2018-04-29T00:01:38.565Z,13.60
2018-04-29T00:04:06.046Z,13.60
2018-04-29T00:06:33.506Z,13.50
2018-04-29T00:09:00.989Z,13.50
2018-04-29T00:11:28.479Z,13.50
2018-04-29T00:13:55.943Z,13.60
2018-04-29T00:16:23.397Z,13.60
2018-04-29T00:18:50.860Z,13.60
2018-04-29T00:21:18.316Z,13.60
2018-04-29T00:23:45.780Z,13.50
2018-04-29T00:26:13.299Z,13.50
2018-04-29T00:28:40.719Z,13.50
2018-04-29T00:31:08.940Z,13.40
2018-04-29T00:33:36.412Z,13.40
2018-04-29T00:36:03.882Z,13.40
2018-04-29T00:38:31.345Z,13.30
2018-04-29T00:40:58.820Z,13.30
2018-04-29T00:43:26.293Z,13.20
2018-04-29T00:45:53.758Z,13.10
2018-04-29T00:48:21.243Z,13.00
2018-04-29T00:50:48.693Z,12.90
2018-04-29T00:53:16.954Z,12.70
2018-04-29T00:55:44.438Z,12.70
2018-04-29T00:58:11.916Z,12.70
2018-04-29T01:00:39.380Z,12.60
2018-04-29T01:03:06.925Z,12.60
2018-04-29T01:05:34.413Z,12.60
2018-04-29T01:08:01.865Z,12.60
2018-04-29T01:10:29.313Z,12.60
2018-04-29T01:12:56.774Z,12.50
2018-04-29T01:15:24.243Z,12.50
2018-04-29T01:17:51.717Z,12.50
2018-04-29T01:20:19.196Z,12.50
2018-04-29T01:22:46.652Z,12.50
2018-04-29T01:25:14.116Z,12.50
2018-04-29T01:27:41.580Z,12.50
2018-04-29T01:30:09.048Z,12.60
2018-04-29T01:32:36.515Z,12.60
2018-04-29T01:35:03.983Z,12.60
2018-04-29T01:37:31.456Z,12.70
2018-04-29T01:39:59.217Z,12.70
2018-04-29T01:42:26.678Z,12.70
2018-04-29T01:44:54.143Z,12.80
2018-04-29T01:47:21.618Z,12.80
2018-04-29T01:49:49.844Z,12.80
2018-04-29T01:52:17.312Z,12.80
2018-04-29T01:54:44.829Z,12.80
2018-04-29T01:57:12.289Z,12.80
2018-04-29T01:59:39.767Z,12.80
2018-04-29T02:02:07.470Z,12.90
2018-04-29T02:04:34.943Z,12.80
2018-04-29T02:07:03.168Z,12.80
2018-04-29T02:09:30.623Z,12.80
2018-04-29T02:11:58.124Z,12.80
2018-04-29T02:14:25.584Z,12.80
2018-04-29T02:16:53.812Z,12.80
2018-04-29T02:19:21.276Z,12.80
2018-04-29T02:21:48.753Z,12.80
2018-04-29T02:24:16.204Z,12.80
2018-04-29T02:26:43.693Z,12.80
2018-04-29T02:29:11.920Z,12.80
2018-04-29T02:31:39.398Z,12.80
2018-04-29T02:34:06.873Z,12.80
2018-04-29T02:36:34.356Z,12.70
2018-04-29T02:39:01.812Z,12.70
2018-04-29T02:41:29.281Z,12.70
2018-04-29T02:43:56.738Z,12.70
2018-04-29T02:46:24.211Z,12.60
2018-04-29T02:48:51.695Z,12.60
2018-04-29T02:51:19.145Z,12.60
2018-04-29T02:53:46.609Z,12.50
2018-04-29T02:56:14.065Z,12.40
2018-04-29T02:58:41.535Z,12.40
2018-04-29T03:01:08.998Z,12.30
2018-04-29T03:03:36.473Z,12.20
2018-04-29T03:06:03.954Z,12.20
2018-04-29T03:08:31.416Z,12.10
2018-04-29T03:10:58.924Z,12.10
2018-04-29T03:13:26.388Z,12.00
2018-04-29T03:15:54.612Z,11.90
2018-04-29T03:18:22.073Z,11.90
2018-04-29T03:20:49.591Z,11.90
2018-04-29T03:23:17.819Z,11.70
2018-04-29T03:25:45.295Z,11.70
2018-04-29T03:28:12.788Z,11.60
2018-04-29T03:30:40.253Z,11.50
2018-04-29T03:33:07.750Z,11.50
2018-04-29T03:35:35.238Z,11.40
2018-04-29T03:38:02.713Z,11.30
2018-04-29T03:40:30.177Z,11.20
2018-04-29T03:42:57.670Z,11.20
2018-04-29T03:45:25.149Z,11.10
2018-04-29T03:47:52.653Z,11.10
2018-04-29T03:50:20.110Z,11.10
2018-04-29T03:52:47.592Z,11.10
2018-04-29T03:55:15.075Z,11.10
2018-04-29T03:57:54.267Z,11.10
2018-04-29T04:00:33.536Z,11.20
2018-04-29T04:03:12.827Z,11.20
2018-04-29T04:05:40.289Z,11.20
2018-04-29T04:08:07.755Z,11.30
2018-04-29T04:10:35.259Z,11.30
2018-04-29T04:13:02.754Z,11.30
2018-04-29T04:15:30.235Z,11.30
2018-04-29T04:17:57.688Z,11.30
2018-04-29T04:20:25.137Z,11.40
2018-04-29T04:22:52.599Z,11.40
2018-04-29T04:25:20.098Z,11.40
2018-04-29T04:27:47.549Z,11.50
2018-04-29T04:30:15.010Z,11.50
2018-04-29T04:32:42.488Z,11.60
2018-04-29T04:35:09.943Z,11.70
2018-04-29T04:37:38.167Z,11.80
2018-04-29T04:40:05.649Z,11.80
2018-04-29T04:42:33.115Z,11.80
2018-04-29T04:45:00.581Z,11.90
2018-04-29T04:47:28.045Z,12.10
2018-04-29T04:49:56.282Z,12.10
2018-04-29T04:52:23.977Z,12.10
2018-04-29T04:54:51.885Z,12.20
2018-04-29T04:57:19.348Z,12.20
2018-04-29T04:59:46.811Z,12.30
2018-04-29T05:02:14.268Z,12.40
2018-04-29T05:04:41.724Z,12.50
2018-04-29T05:07:09.229Z,12.60
2018-04-29T05:09:36.705Z,12.70
2018-04-29T05:12:04.932Z,12.80
2018-04-29T05:14:32.402Z,12.80
2018-04-29T05:16:59.869Z,12.90
2018-04-29T05:19:27.371Z,13.00
2018-04-29T05:21:54.848Z,13.10
2018-04-29T05:24:22.345Z,13.10
2018-04-29T05:31:49.204Z,13.30
2018-04-29T05:34:16.707Z,13.50
2018-04-29T05:36:44.177Z,13.50
2018-04-29T05:39:11.704Z,13.60
2018-04-29T05:41:39.953Z,13.50
2018-04-29T05:44:07.410Z,13.40
2018-04-29T05:46:37.837Z,13.30
2018-04-29T05:49:05.294Z,13.30
2018-04-29T05:51:32.752Z,13.30
2018-04-29T05:54:00.229Z,13.30
2018-04-29T05:56:27.719Z,13.30
2018-04-29T05:58:55.180Z,13.40
2018-04-29T06:01:22.655Z,13.50
2018-04-29T06:03:50.112Z,13.70
2018-04-29T06:06:17.654Z,13.80
2018-04-29T06:08:45.140Z,14.00
2018-04-29T06:11:12.598Z,14.10
2018-04-29T06:13:40.060Z,14.30
2018-04-29T06:16:07.518Z,14.50
2018-04-29T06:18:34.987Z,14.50
2018-04-29T06:21:02.456Z,14.50
2018-04-29T06:23:30.692Z,14.60
2018-04-29T06:25:58.220Z,14.50
2018-04-29T06:28:25.684Z,14.60
2018-04-29T06:30:53.132Z,14.30
2018-04-29T06:33:20.617Z,14.20
2018-04-29T06:35:48.072Z,14.20
2018-04-29T06:38:15.577Z,14.20
2018-04-29T06:40:43.057Z,14.20
2018-04-29T06:43:10.513Z,14.20
2018-04-29T06:45:38.032Z,14.20
2018-04-29T06:48:05.533Z,14.20
2018-04-29T06:50:33.005Z,14.20
2018-04-29T06:53:00.491Z,14.30
2018-04-29T06:55:27.967Z,14.20
2018-04-29T06:57:55.460Z,14.30
2018-04-29T07:00:22.908Z,14.20
2018-04-29T07:02:50.393Z,14.00
2018-04-29T07:05:17.864Z,13.90
2018-04-29T07:07:45.321Z,14.00
2018-04-29T07:10:12.788Z,14.00
2018-04-29T07:12:40.274Z,14.00
2018-04-29T07:15:07.747Z,13.90
2018-04-29T07:17:35.228Z,14.00
2018-04-29T07:20:02.795Z,14.00
2018-04-29T07:22:30.168Z,14.10
2018-04-29T07:24:57.630Z,14.20
2018-04-29T07:27:25.094Z,14.30
2018-04-29T07:29:52.573Z,14.50
2018-04-29T07:32:20.037Z,14.70
2018-04-29T07:34:47.525Z,14.70
2018-04-29T07:37:16.098Z,14.70
2018-04-29T07:39:43.625Z,14.80
2018-04-29T07:42:11.044Z,14.90
2018-04-29T07:44:38.504Z,14.90
2018-04-29T07:47:05.972Z,14.80
2018-04-29T07:49:33.502Z,14.90
2018-04-29T07:52:01.069Z,15.00
2018-04-29T07:54:28.449Z,15.20
2018-04-29T07:56:55.930Z,15.20
2018-04-29T07:59:23.407Z,15.10
2018-04-29T08:01:50.867Z,15.10
2018-04-29T08:04:18.325Z,15.30
2018-04-29T08:06:45.856Z,15.30
2018-04-29T08:09:13.285Z,15.30
2018-04-29T08:11:40.756Z,15.40
2018-04-29T08:14:08.222Z,15.50
2018-04-29T08:16:35.702Z,15.40
2018-04-29T08:19:03.937Z,15.60
2018-04-29T08:21:31.409Z,15.50
2018-04-29T08:23:58.869Z,15.50
2018-04-29T08:26:26.340Z,15.50
2018-04-29T08:28:53.812Z,15.50
2018-04-29T08:31:21.281Z,15.70
2018-04-29T08:33:48.750Z,15.80
2018-04-29T08:36:16.230Z,16.00
2018-04-29T08:38:43.705Z,16.00
2018-04-29T08:41:11.166Z,16.00
2018-04-29T08:43:38.631Z,16.10
2018-04-29T08:46:06.891Z,15.90
2018-04-29T08:48:34.411Z,15.90
2018-04-29T08:51:02.625Z,16.20
2018-04-29T08:53:30.111Z,16.20
2018-04-29T08:55:58.424Z,16.30
2018-04-29T08:58:25.833Z,16.30
2018-04-29T09:00:54.079Z,16.50
2018-04-29T09:03:21.578Z,16.50
2018-04-29T09:05:49.073Z,16.70
2018-04-29T09:08:16.531Z,16.90
2018-04-29T09:10:44.005Z,17.00
2018-04-29T09:13:11.485Z,17.20
2018-04-29T09:15:38.995Z,17.40
2018-04-29T09:18:06.504Z,17.50
2018-04-29T09:20:33.981Z,17.60
2018-04-29T09:23:01.476Z,17.80
2018-04-29T09:25:28.968Z,17.70
2018-04-29T09:27:56.466Z,17.70
2018-04-29T09:30:23.941Z,17.70
2018-04-29T09:32:51.424Z,17.50
2018-04-29T09:35:18.889Z,17.50
2018-04-29T09:37:46.368Z,17.60
2018-04-29T09:40:14.596Z,17.70
2018-04-29T09:42:42.081Z,17.70
2018-04-29T09:45:09.564Z,17.80
2018-04-29T09:47:37.046Z,17.80
2018-04-29T09:50:04.516Z,17.90
2018-04-29T09:52:31.981Z,18.10
2018-04-29T09:54:59.456Z,18.20
2018-04-29T09:57:26.938Z,18.30
2018-04-29T09:59:54.417Z,18.40
2018-04-29T10:02:23.697Z,18.50
2018-04-29T10:04:51.210Z,18.60
2018-04-29T10:07:18.678Z,18.70
2018-04-29T10:09:46.149Z,18.70
2018-04-29T10:12:13.597Z,18.80
2018-04-29T10:14:41.081Z,18.80
2018-04-29T10:17:08.554Z,18.90
2018-04-29T10:19:36.017Z,18.90
2018-04-29T10:22:03.497Z,18.90
2018-04-29T10:24:30.958Z,19.00
2018-04-29T10:26:58.430Z,19.00
2018-04-29T10:29:25.890Z,19.10
2018-04-29T10:31:53.354Z,19.30
2018-04-29T10:34:20.861Z,19.50
2018-04-29T10:36:48.328Z,19.60
2018-04-29T10:39:15.783Z,19.70
2018-04-29T10:41:43.255Z,19.80
2018-04-29T10:44:10.739Z,19.90
2018-04-29T10:46:38.198Z,20.00
2018-04-29T10:49:05.660Z,20.10
2018-04-29T10:51:33.132Z,20.10
2018-04-29T10:54:00.637Z,20.10
2018-04-29T10:56:28.120Z,20.20
2018-04-29T10:58:55.599Z,20.30
2018-04-29T11:01:23.061Z,20.30
2018-04-29T11:03:50.560Z,20.40
2018-04-29T11:06:18.034Z,20.50
2018-04-29T11:08:45.505Z,20.50
2018-04-29T11:11:12.970Z,20.60
2018-04-29T11:13:40.442Z,20.60
2018-04-29T11:16:07.902Z,20.40
2018-04-29T11:18:35.368Z,20.30
2018-04-29T11:21:02.859Z,20.20
2018-04-29T11:23:30.357Z,20.10
2018-04-29T11:25:57.824Z,20.00
2018-04-29T11:28:25.297Z,20.10
2018-04-29T11:30:52.752Z,20.10
2018-04-29T11:33:20.988Z,20.20
2018-04-29T11:35:48.455Z,20.10
2018-04-29T11:38:15.944Z,20.10
2018-04-29T11:40:43.421Z,20.10
2018-04-29T11:43:10.865Z,20.20
2018-04-29T11:45:39.101Z,20.40
2018-04-29T11:48:06.551Z,20.40
2018-04-29T11:50:34.023Z,20.40
2018-04-29T11:53:01.481Z,20.30
2018-04-29T11:55:29.006Z,20.20
2018-04-29T11:57:56.468Z,20.20
2018-04-29T12:00:23.942Z,20.20
2018-04-29T12:02:51.427Z,20.20
2018-04-29T12:05:18.917Z,20.10
2018-04-29T12:07:46.405Z,20.20
2018-04-29T12:10:13.874Z,20.40
2018-04-29T12:12:41.365Z,20.40
2018-04-29T12:15:08.828Z,20.40
2018-04-29T12:17:36.288Z,20.30
2018-04-29T12:20:04.517Z,20.70
2018-04-29T12:22:31.977Z,20.60
2018-04-29T12:24:59.451Z,20.80
2018-04-29T12:27:26.935Z,21.00
2018-04-29T12:29:55.189Z,21.00
2018-04-29T12:32:22.648Z,21.00
2018-04-29T12:34:50.136Z,20.90
2018-04-29T12:37:17.614Z,20.80
2018-04-29T12:39:45.097Z,20.80
2018-04-29T12:42:12.594Z,20.90
2018-04-29T12:44:40.118Z,20.90
2018-04-29T12:47:07.589Z,20.80
2018-04-29T12:49:35.065Z,20.90
2018-04-29T12:52:02.549Z,21.00
2018-04-29T12:54:30.138Z,20.90
2018-04-29T12:56:57.592Z,20.70
2018-04-29T12:59:25.079Z,20.70
2018-04-29T13:01:52.578Z,20.60
2018-04-29T13:04:20.058Z,20.50
2018-04-29T13:06:47.529Z,20.30
2018-04-29T13:09:15.018Z,20.20
2018-04-29T13:11:42.486Z,20.30
2018-04-29T13:14:10.717Z,20.70
2018-04-29T13:16:38.189Z,20.70
2018-04-29T13:19:05.679Z,20.90
2018-04-29T13:21:33.156Z,21.00
2018-04-29T13:24:00.637Z,21.00
2018-04-29T13:26:28.142Z,20.80
2018-04-29T13:28:55.600Z,20.80
2018-04-29T13:31:23.081Z,20.70
2018-04-29T13:33:50.550Z,20.80
2018-04-29T13:36:18.014Z,20.90
2018-04-29T13:38:45.498Z,20.80
2018-04-29T13:41:12.979Z,20.80
2018-04-29T13:43:40.456Z,20.80
2018-04-29T13:46:07.931Z,20.70
2018-04-29T13:48:35.400Z,20.80
2018-04-29T13:51:02.881Z,20.80
2018-04-29T13:53:30.345Z,21.00
2018-04-29T13:55:57.852Z,21.00
2018-04-29T13:58:25.313Z,20.90
2018-04-29T14:00:52.777Z,20.80
2018-04-29T14:03:20.255Z,20.90
2018-04-29T14:05:47.726Z,20.90
2018-04-29T14:08:15.189Z,20.90
2018-04-29T14:10:42.660Z,20.90
2018-04-29T14:13:10.115Z,20.70
2018-04-29T14:15:37.751Z,20.70
2018-04-29T14:18:05.229Z,20.40
2018-04-29T14:20:32.688Z,20.30
2018-04-29T14:23:00.150Z,20.40
2018-04-29T14:25:27.629Z,20.60
2018-04-29T14:27:55.100Z,20.60
2018-04-29T14:30:22.568Z,20.60
2018-04-29T14:32:50.067Z,20.50
2018-04-29T14:35:17.542Z,20.40
2018-04-29T14:37:46.628Z,20.30
2018-04-29T14:40:14.118Z,20.30
2018-04-29T14:42:41.600Z,20.40
2018-04-29T14:45:09.083Z,20.40
2018-04-29T14:47:36.535Z,20.40
2018-04-29T14:50:04.022Z,20.20
2018-04-29T14:52:32.254Z,20.00
2018-04-29T14:54:59.711Z,20.00
2018-04-29T14:57:27.184Z,20.00
2018-04-29T14:59:54.698Z,20.10
2018-04-29T15:02:22.175Z,20.20
2018-04-29T15:04:49.628Z,20.00
2018-04-29T15:07:17.101Z,19.90
2018-04-29T15:09:44.584Z,19.80
2018-04-29T15:12:12.043Z,19.60
2018-04-29T15:14:39.505Z,19.50
2018-04-29T15:17:07.734Z,19.50
2018-04-29T15:19:47.116Z,19.50
2018-04-29T15:22:14.599Z,19.50
2018-04-29T15:24:42.076Z,19.40
2018-04-29T15:27:09.582Z,19.30
2018-04-29T15:29:37.065Z,19.20
2018-04-29T15:32:05.291Z,19.00
2018-04-29T15:34:32.775Z,19.00
2018-04-29T15:37:00.246Z,19.00
2018-04-29T15:39:27.709Z,18.90
2018-04-29T15:41:55.944Z,19.00
2018-04-29T15:44:23.420Z,18.90
2018-04-29T15:46:50.898Z,19.00
2018-04-29T15:49:19.175Z,18.80
2018-04-29T15:51:46.651Z,18.80
2018-04-29T15:54:14.125Z,18.80
2018-04-29T15:56:41.592Z,18.70
2018-04-29T15:59:09.068Z,18.70
2018-04-29T16:01:36.555Z,18.90
2018-04-29T16:04:04.032Z,18.80
2018-04-29T16:06:31.493Z,18.60
2018-04-29T16:08:58.948Z,18.70
2018-04-29T16:11:26.418Z,18.80
2018-04-29T16:13:53.904Z,18.70
2018-04-29T16:16:21.391Z,18.80
2018-04-29T16:18:48.867Z,18.90
2018-04-29T16:21:16.325Z,18.90
2018-04-29T16:23:43.832Z,19.10
2018-04-29T16:26:11.305Z,19.40
2018-04-29T16:28:38.782Z,19.30
2018-04-29T16:31:07.006Z,19.10
2018-04-29T16:33:34.522Z,19.10
2018-04-29T16:36:02.748Z,18.90
2018-04-29T16:38:30.229Z,18.90
2018-04-29T16:40:57.697Z,18.80
2018-04-29T16:43:25.927Z,18.70
2018-04-29T16:45:53.408Z,18.70
2018-04-29T16:48:20.893Z,18.70
2018-04-29T16:50:48.403Z,18.70
2018-04-29T16:53:15.901Z,18.70
2018-04-29T16:55:43.429Z,18.70
2018-04-29T16:58:10.922Z,18.70
2018-04-29T17:00:39.179Z,18.50
2018-04-29T17:03:06.691Z,18.50
2018-04-29T17:05:34.215Z,18.40
2018-04-29T17:08:01.742Z,18.30
2018-04-29T17:10:29.267Z,18.10
2018-04-29T17:12:56.786Z,18.00
2018-04-29T17:15:24.294Z,17.80
2018-04-29T17:17:51.822Z,17.50
2018-04-29T17:20:19.348Z,17.30
2018-04-29T17:22:46.842Z,17.10
2018-04-29T17:25:14.352Z,16.60
2018-04-29T17:27:41.825Z,16.40
2018-04-29T17:30:09.313Z,16.30
2018-04-29T17:32:36.846Z,16.20
2018-04-29T17:35:04.353Z,16.00
2018-04-29T17:37:34.082Z,15.90
2018-04-29T17:40:01.833Z,15.80
2018-04-29T17:42:29.493Z,15.70
2018-04-29T17:44:59.175Z,15.60
2018-04-29T17:47:27.217Z,15.60
2018-04-29T17:49:55.923Z,15.50
2018-04-29T17:52:23.720Z,15.50
2018-04-29T17:54:52.414Z,15.40
2018-04-29T17:57:26.535Z,15.30
2018-04-29T18:02:28.882Z,15.20
2018-04-29T18:04:56.947Z,15.20
2018-04-29T18:10:04.799Z,14.90
2018-04-29T18:15:50.018Z,14.80
2018-04-29T18:18:25.670Z,14.80
2018-04-29T18:20:54.701Z,14.70
2018-04-29T18:26:13.764Z,14.70
2018-04-29T18:28:42.015Z,14.60
2018-04-29T18:31:09.545Z,14.60
2018-04-29T18:33:37.053Z,14.50
2018-04-29T18:36:04.586Z,14.50
2018-04-29T18:38:32.068Z,14.50
2018-04-29T18:40:59.565Z,14.40
2018-04-29T18:43:27.071Z,14.40
2018-04-29T18:45:54.580Z,14.40
2018-04-29T18:48:22.966Z,14.40
2018-04-29T18:50:52.559Z,14.30
2018-04-29T18:53:19.894Z,14.30
2018-04-29T18:55:47.363Z,14.30
2018-04-29T18:58:14.843Z,14.20
2018-04-29T19:00:42.351Z,14.20
2018-04-29T19:03:09.841Z,14.20
2018-04-29T19:05:47.003Z,14.20
2018-04-29T19:08:14.506Z,14.20
2018-04-29T19:10:42.021Z,14.20
2018-04-29T19:13:09.597Z,14.10
2018-04-29T19:15:37.101Z,14.20
2018-04-29T19:18:04.634Z,14.20
2018-04-29T19:20:32.163Z,14.10
2018-04-29T19:22:59.655Z,14.20
2018-04-29T19:25:27.143Z,14.20
2018-04-29T19:27:54.662Z,14.20
2018-04-29T19:30:22.174Z,14.20
2018-04-29T19:32:49.638Z,14.20
2018-04-29T19:35:17.118Z,14.10
2018-04-29T19:37:44.628Z,14.10
2018-04-29T19:40:12.150Z,14.10
2018-04-29T19:42:39.652Z,14.00
2018-04-29T19:45:07.135Z,13.90
2018-04-29T19:47:34.630Z,13.90
2018-04-29T19:50:02.104Z,13.90
2018-04-29T19:52:29.577Z,13.80
2018-04-29T19:54:57.064Z,13.70
2018-04-29T19:57:25.344Z,13.60
2018-04-29T19:59:52.923Z,13.60
2018-04-29T20:02:20.417Z,13.50
2018-04-29T20:04:47.921Z,13.40
2018-04-29T20:07:15.407Z,13.40
2018-04-29T20:09:42.897Z,13.30
2018-04-29T20:12:10.401Z,13.30
2018-04-29T20:14:37.945Z,13.30
2018-04-29T20:17:06.222Z,13.20
2018-04-29T20:19:33.708Z,13.20
2018-04-29T20:22:01.204Z,13.20
2018-04-29T20:24:29.534Z,13.10
2018-04-29T20:26:57.015Z,13.10
2018-04-29T20:29:24.481Z,13.00
2018-04-29T20:31:51.988Z,13.10
2018-04-29T20:34:20.260Z,13.00
2018-04-29T20:36:47.830Z,13.00
2018-04-29T20:39:15.471Z,12.90
2018-04-29T20:41:43.005Z,12.90
2018-04-29T20:44:10.498Z,12.90
2018-04-29T20:46:38.098Z,12.80
2018-04-29T20:49:05.605Z,12.80
2018-04-29T20:51:33.093Z,12.80
2018-04-29T20:54:01.882Z,12.70
2018-04-29T20:56:29.441Z,12.70
2018-04-29T20:58:57.193Z,12.70
2018-04-29T21:01:24.730Z,12.70
2018-04-29T21:03:52.221Z,12.70
2018-04-29T21:06:19.730Z,12.70
2018-04-29T21:08:47.225Z,12.70
2018-04-29T21:11:14.692Z,12.70
2018-04-29T21:13:42.257Z,12.70
2018-04-29T21:16:09.710Z,12.70
2018-04-29T21:18:37.269Z,12.70
2018-04-29T21:21:04.771Z,12.70
2018-04-29T21:23:33.037Z,12.60
2018-04-29T21:26:00.537Z,12.60
2018-04-29T21:28:28.010Z,12.60
2018-04-29T21:30:55.503Z,12.60
2018-04-29T21:33:22.971Z,12.60
2018-04-29T21:35:51.229Z,12.50
2018-04-29T21:38:18.715Z,12.50
2018-04-29T21:40:46.170Z,12.50
2018-04-29T21:43:13.653Z,12.40
2018-04-29T21:45:41.884Z,12.50
2018-04-29T21:48:09.382Z,12.50
2018-04-29T21:50:36.842Z,12.40
2018-04-29T21:53:04.322Z,12.40
2018-04-29T21:55:31.801Z,12.50
2018-04-29T21:57:59.334Z,12.50
2018-04-29T22:00:26.834Z,12.50
2018-04-29T22:02:54.345Z,12.40
2018-04-29T22:05:22.596Z,12.40
2018-04-29T22:07:50.087Z,12.40
2018-04-29T22:10:17.557Z,12.30
2018-04-29T22:12:45.047Z,12.40
2018-04-29T22:15:12.553Z,12.40
2018-04-29T22:17:40.059Z,12.40
2018-04-29T22:20:07.525Z,12.40
2018-04-29T22:22:35.002Z,12.50
2018-04-29T22:25:02.485Z,12.50
2018-04-29T22:27:30.749Z,12.60
2018-04-29T22:29:59.695Z,12.60
2018-04-29T22:32:27.155Z,12.60
2018-04-29T22:34:54.945Z,12.60
2018-04-29T22:37:22.411Z,12.60
2018-04-29T22:39:50.632Z,12.60
2018-04-29T22:42:18.098Z,12.60
2018-04-29T22:44:45.582Z,12.70
2018-04-29T22:47:13.081Z,12.60
2018-04-29T22:49:40.559Z,12.70
2018-04-29T22:52:08.019Z,12.60
2018-04-29T22:54:35.492Z,12.60
2018-04-29T22:57:02.977Z,12.60
2018-04-29T22:59:31.218Z,12.60
2018-04-29T23:01:58.671Z,12.60
2018-04-29T23:04:26.373Z,12.60
2018-04-29T23:06:53.849Z,12.60
2018-04-29T23:09:22.132Z,12.50
2018-04-29T23:11:49.645Z,12.50
2018-04-29T23:14:17.913Z,12.50
2018-04-29T23:16:45.412Z,12.40
2018-04-29T23:19:13.657Z,12.50
2018-04-29T23:21:41.117Z,12.40
2018-04-29T23:24:08.600Z,12.50
2018-04-29T23:26:36.886Z,12.50
2018-04-29T23:29:04.365Z,12.50
2018-04-29T23:31:31.842Z,12.50
2018-04-29T23:33:59.304Z,12.50
2018-04-29T23:36:26.793Z,12.50
2018-04-29T23:38:55.019Z,12.50
2018-04-29T23:41:22.585Z,12.50
2018-04-29T23:43:50.076Z,12.50
2018-04-29T23:46:17.556Z,12.50
2018-04-29T23:48:45.046Z,12.40
2018-04-29T23:51:12.509Z,12.40
2018-04-29T23:53:39.993Z,12.50
2018-04-29T23:56:07.505Z,12.50
2018-04-29T23:58:35.306Z,12.50
